sensor_id;sensor_type;location;lat;lon;timestamp;temperature;humidity
66728;DHT22;53641;44.274;19.890;2023-02-28T00:01:05;5.50;99.90
66728;DHT22;53641;44.274;19.890;2023-02-28T00:03:31;5.50;99.90
66728;DHT22;53641;44.274;19.890;2023-02-28T00:06:22;5.50;99.90
66728;DHT22;53641;44.274;19.890;2023-02-28T00:08:46;5.50;99.90
66728;DHT22;53641;44.274;19.890;2023-02-28T00:11:12;5.70;99.90
66728;DHT22;53641;44.274;19.890;2023-02-28T00:13:39;5.60;99.90
66728;DHT22;53641;44.274;19.890;2023-02-28T00:16:06;5.70;99.90
66728;DHT22;53641;44.274;19.890;2023-02-28T00:18:33;5.50;99.90
66728;DHT22;53641;44.274;19.890;2023-02-28T00:20:59;5.50;99.90
66728;DHT22;53641;44.274;19.890;2023-02-28T00:23:25;5.50;99.90
66728;DHT22;53641;44.274;19.890;2023-02-28T00:25:51;5.40;99.90
66728;DHT22;53641;44.274;19.890;2023-02-28T00:28:17;5.50;99.90
66728;DHT22;53641;44.274;19.890;2023-02-28T00:30:43;5.50;99.90
66728;DHT22;53641;44.274;19.890;2023-02-28T00:33:09;5.60;99.90
66728;DHT22;53641;44.274;19.890;2023-02-28T00:35:34;5.50;99.90
66728;DHT22;53641;44.274;19.890;2023-02-28T00:38:00;5.60;99.90
66728;DHT22;53641;44.274;19.890;2023-02-28T00:40:25;5.70;99.90
66728;DHT22;53641;44.274;19.890;2023-02-28T00:42:51;5.80;99.90
66728;DHT22;53641;44.274;19.890;2023-02-28T00:45:17;5.50;99.90
66728;DHT22;53641;44.274;19.890;2023-02-28T00:47:43;5.50;99.90
66728;DHT22;53641;44.274;19.890;2023-02-28T00:50:09;5.70;99.90
66728;DHT22;53641;44.274;19.890;2023-02-28T00:52:34;5.60;99.90
66728;DHT22;53641;44.274;19.890;2023-02-28T00:55:00;5.50;99.90
66728;DHT22;53641;44.274;19.890;2023-02-28T00:57:25;5.50;99.90
66728;DHT22;53641;44.274;19.890;2023-02-28T00:59:51;5.40;99.90
66728;DHT22;53641;44.274;19.890;2023-02-28T01:02:19;5.50;99.90
66728;DHT22;53641;44.274;19.890;2023-02-28T01:04:45;5.50;99.90
66728;DHT22;53641;44.274;19.890;2023-02-28T01:07:14;5.50;99.90
66728;DHT22;53641;44.274;19.890;2023-02-28T01:09:40;5.40;99.90
66728;DHT22;53641;44.274;19.890;2023-02-28T01:12:06;5.50;99.90
66728;DHT22;53641;44.274;19.890;2023-02-28T01:14:32;5.50;99.90
66728;DHT22;53641;44.274;19.890;2023-02-28T01:16:58;5.60;99.90
66728;DHT22;53641;44.274;19.890;2023-02-28T01:19:23;5.50;99.90
66728;DHT22;53641;44.274;19.890;2023-02-28T01:21:49;5.50;99.90
66728;DHT22;53641;44.274;19.890;2023-02-28T01:24:14;5.40;99.90
66728;DHT22;53641;44.274;19.890;2023-02-28T01:26:40;5.50;99.90
66728;DHT22;53641;44.274;19.890;2023-02-28T01:29:06;5.40;99.90
66728;DHT22;53641;44.274;19.890;2023-02-28T01:31:31;5.60;99.90
66728;DHT22;53641;44.274;19.890;2023-02-28T01:33:57;5.60;99.90
66728;DHT22;53641;44.274;19.890;2023-02-28T01:36:23;5.60;99.90
66728;DHT22;53641;44.274;19.890;2023-02-28T01:38:49;5.50;99.90
66728;DHT22;53641;44.274;19.890;2023-02-28T01:41:16;5.50;99.90
66728;DHT22;53641;44.274;19.890;2023-02-28T01:43:58;5.40;99.90
66728;DHT22;53641;44.274;19.890;2023-02-28T01:46:24;5.60;99.90
66728;DHT22;53641;44.274;19.890;2023-02-28T01:48:54;5.60;99.90
66728;DHT22;53641;44.274;19.890;2023-02-28T01:51:22;5.60;99.90
66728;DHT22;53641;44.274;19.890;2023-02-28T01:53:51;5.70;99.90
66728;DHT22;53641;44.274;19.890;2023-02-28T01:56:19;5.50;99.90
66728;DHT22;53641;44.274;19.890;2023-02-28T01:58:48;5.60;99.90
66728;DHT22;53641;44.274;19.890;2023-02-28T02:01:13;5.60;99.90
66728;DHT22;53641;44.274;19.890;2023-02-28T02:03:49;5.70;99.90
66728;DHT22;53641;44.274;19.890;2023-02-28T02:06:21;5.70;99.90
66728;DHT22;53641;44.274;19.890;2023-02-28T02:08:47;5.70;99.90
66728;DHT22;53641;44.274;19.890;2023-02-28T02:11:13;5.70;99.90
66728;DHT22;53641;44.274;19.890;2023-02-28T02:13:50;5.60;99.90
66728;DHT22;53641;44.274;19.890;2023-02-28T02:16:24;5.20;99.90
66728;DHT22;53641;44.274;19.890;2023-02-28T02:18:54;5.70;99.90
66728;DHT22;53641;44.274;19.890;2023-02-28T02:21:47;5.70;99.90
66728;DHT22;53641;44.274;19.890;2023-02-28T02:24:11;5.60;99.90
66728;DHT22;53641;44.274;19.890;2023-02-28T02:29:31;5.80;99.90
66728;DHT22;53641;44.274;19.890;2023-02-28T02:32:06;5.60;99.90
66728;DHT22;53641;44.274;19.890;2023-02-28T02:34:38;5.60;99.90
66728;DHT22;53641;44.274;19.890;2023-02-28T02:37:09;5.70;99.90
66728;DHT22;53641;44.274;19.890;2023-02-28T02:39:44;5.50;99.90
66728;DHT22;53641;44.274;19.890;2023-02-28T02:42:14;5.60;99.90
66728;DHT22;53641;44.274;19.890;2023-02-28T02:44:49;5.50;99.90
66728;DHT22;53641;44.274;19.890;2023-02-28T02:47:20;5.60;99.90
66728;DHT22;53641;44.274;19.890;2023-02-28T02:49:48;5.60;99.90
66728;DHT22;53641;44.274;19.890;2023-02-28T02:52:14;5.50;99.90
66728;DHT22;53641;44.274;19.890;2023-02-28T02:54:41;5.50;99.90
66728;DHT22;53641;44.274;19.890;2023-02-28T02:57:11;5.50;99.90
66728;DHT22;53641;44.274;19.890;2023-02-28T02:59:38;5.60;99.90
66728;DHT22;53641;44.274;19.890;2023-02-28T03:02:05;5.70;99.90
66728;DHT22;53641;44.274;19.890;2023-02-28T03:04:33;5.60;99.90
66728;DHT22;53641;44.274;19.890;2023-02-28T03:07:00;5.80;99.90
66728;DHT22;53641;44.274;19.890;2023-02-28T03:09:25;5.50;99.90
66728;DHT22;53641;44.274;19.890;2023-02-28T03:11:52;5.60;99.90
66728;DHT22;53641;44.274;19.890;2023-02-28T03:14:22;5.70;99.90
66728;DHT22;53641;44.274;19.890;2023-02-28T03:16:56;5.60;99.90
66728;DHT22;53641;44.274;19.890;2023-02-28T03:19:33;5.60;99.90
66728;DHT22;53641;44.274;19.890;2023-02-28T03:22:13;5.20;99.90
66728;DHT22;53641;44.274;19.890;2023-02-28T03:24:43;5.50;99.90
66728;DHT22;53641;44.274;19.890;2023-02-28T03:27:11;5.50;99.90
66728;DHT22;53641;44.274;19.890;2023-02-28T03:29:48;5.50;99.90
66728;DHT22;53641;44.274;19.890;2023-02-28T03:32:29;5.50;99.90
66728;DHT22;53641;44.274;19.890;2023-02-28T03:34:58;5.50;99.90
66728;DHT22;53641;44.274;19.890;2023-02-28T03:37:28;5.50;99.90
66728;DHT22;53641;44.274;19.890;2023-02-28T03:40:00;5.30;99.90
66728;DHT22;53641;44.274;19.890;2023-02-28T03:42:27;5.40;99.90
66728;DHT22;53641;44.274;19.890;2023-02-28T03:44:54;5.20;99.90
66728;DHT22;53641;44.274;19.890;2023-02-28T03:47:27;5.30;99.90
66728;DHT22;53641;44.274;19.890;2023-02-28T03:49:56;5.30;99.90
66728;DHT22;53641;44.274;19.890;2023-02-28T03:52:25;5.30;99.90
66728;DHT22;53641;44.274;19.890;2023-02-28T03:54:53;5.30;99.90
66728;DHT22;53641;44.274;19.890;2023-02-28T03:57:25;5.30;99.90
66728;DHT22;53641;44.274;19.890;2023-02-28T03:59:55;5.30;99.90
66728;DHT22;53641;44.274;19.890;2023-02-28T04:02:22;5.10;99.90
66728;DHT22;53641;44.274;19.890;2023-02-28T04:04:47;5.00;99.90
66728;DHT22;53641;44.274;19.890;2023-02-28T04:07:15;5.20;99.90
66728;DHT22;53641;44.274;19.890;2023-02-28T04:09:41;5.20;99.90
66728;DHT22;53641;44.274;19.890;2023-02-28T04:12:06;5.10;99.90
66728;DHT22;53641;44.274;19.890;2023-02-28T04:14:32;5.10;99.90
66728;DHT22;53641;44.274;19.890;2023-02-28T04:16:58;5.00;99.90
66728;DHT22;53641;44.274;19.890;2023-02-28T04:19:23;5.10;99.90
66728;DHT22;53641;44.274;19.890;2023-02-28T04:21:50;5.00;99.90
66728;DHT22;53641;44.274;19.890;2023-02-28T04:24:17;5.00;99.90
66728;DHT22;53641;44.274;19.890;2023-02-28T04:26:47;5.00;99.90
66728;DHT22;53641;44.274;19.890;2023-02-28T04:29:13;4.90;99.90
66728;DHT22;53641;44.274;19.890;2023-02-28T04:31:39;4.90;99.90
66728;DHT22;53641;44.274;19.890;2023-02-28T04:34:05;4.90;99.90
66728;DHT22;53641;44.274;19.890;2023-02-28T04:36:31;4.90;99.90
66728;DHT22;53641;44.274;19.890;2023-02-28T04:38:56;4.90;99.90
66728;DHT22;53641;44.274;19.890;2023-02-28T04:41:22;5.00;99.90
66728;DHT22;53641;44.274;19.890;2023-02-28T04:43:48;4.90;99.90
66728;DHT22;53641;44.274;19.890;2023-02-28T04:46:14;4.80;99.90
66728;DHT22;53641;44.274;19.890;2023-02-28T04:48:39;4.80;99.90
66728;DHT22;53641;44.274;19.890;2023-02-28T04:51:06;4.80;99.90
66728;DHT22;53641;44.274;19.890;2023-02-28T04:53:32;4.90;99.90
66728;DHT22;53641;44.274;19.890;2023-02-28T04:55:58;4.90;99.90
66728;DHT22;53641;44.274;19.890;2023-02-28T04:58:24;4.80;99.90
66728;DHT22;53641;44.274;19.890;2023-02-28T05:00:50;5.00;99.90
66728;DHT22;53641;44.274;19.890;2023-02-28T05:03:15;4.70;99.90
66728;DHT22;53641;44.274;19.890;2023-02-28T05:05:41;4.90;99.90
66728;DHT22;53641;44.274;19.890;2023-02-28T05:08:06;5.10;99.90
66728;DHT22;53641;44.274;19.890;2023-02-28T05:10:32;5.10;99.90
66728;DHT22;53641;44.274;19.890;2023-02-28T05:12:58;5.00;99.90
66728;DHT22;53641;44.274;19.890;2023-02-28T05:15:24;5.20;99.90
66728;DHT22;53641;44.274;19.890;2023-02-28T05:17:49;5.10;99.90
66728;DHT22;53641;44.274;19.890;2023-02-28T05:20:15;5.20;99.90
66728;DHT22;53641;44.274;19.890;2023-02-28T05:22:41;5.20;99.90
66728;DHT22;53641;44.274;19.890;2023-02-28T05:25:08;5.00;99.90
66728;DHT22;53641;44.274;19.890;2023-02-28T05:27:36;5.20;99.90
66728;DHT22;53641;44.274;19.890;2023-02-28T05:30:02;5.30;99.90
66728;DHT22;53641;44.274;19.890;2023-02-28T05:32:29;5.30;99.90
66728;DHT22;53641;44.274;19.890;2023-02-28T05:34:55;5.40;99.90
66728;DHT22;53641;44.274;19.890;2023-02-28T05:37:20;5.40;99.90
66728;DHT22;53641;44.274;19.890;2023-02-28T05:39:46;5.30;99.90
66728;DHT22;53641;44.274;19.890;2023-02-28T05:42:11;5.30;99.90
66728;DHT22;53641;44.274;19.890;2023-02-28T05:44:37;5.10;99.90
66728;DHT22;53641;44.274;19.890;2023-02-28T05:47:03;5.20;99.90
66728;DHT22;53641;44.274;19.890;2023-02-28T05:49:29;5.30;99.90
66728;DHT22;53641;44.274;19.890;2023-02-28T05:51:54;5.20;99.90
66728;DHT22;53641;44.274;19.890;2023-02-28T05:54:20;5.30;99.90
66728;DHT22;53641;44.274;19.890;2023-02-28T05:56:45;5.30;99.90
66728;DHT22;53641;44.274;19.890;2023-02-28T05:59:11;5.20;99.90
66728;DHT22;53641;44.274;19.890;2023-02-28T06:01:41;5.30;99.90
66728;DHT22;53641;44.274;19.890;2023-02-28T06:04:10;5.20;99.90
66728;DHT22;53641;44.274;19.890;2023-02-28T06:06:35;5.30;99.90
66728;DHT22;53641;44.274;19.890;2023-02-28T06:09:04;5.30;99.90
66728;DHT22;53641;44.274;19.890;2023-02-28T06:11:30;5.10;99.90
66728;DHT22;53641;44.274;19.890;2023-02-28T06:13:57;5.00;99.90
66728;DHT22;53641;44.274;19.890;2023-02-28T06:16:25;4.90;99.90
66728;DHT22;53641;44.274;19.890;2023-02-28T06:18:53;4.90;99.90
66728;DHT22;53641;44.274;19.890;2023-02-28T06:21:22;5.10;99.90
66728;DHT22;53641;44.274;19.890;2023-02-28T06:23:48;4.90;99.90
66728;DHT22;53641;44.274;19.890;2023-02-28T06:26:13;4.80;99.90
66728;DHT22;53641;44.274;19.890;2023-02-28T06:28:39;4.90;99.90
66728;DHT22;53641;44.274;19.890;2023-02-28T06:31:09;4.70;99.90
66728;DHT22;53641;44.274;19.890;2023-02-28T06:33:35;4.40;99.90
66728;DHT22;53641;44.274;19.890;2023-02-28T06:36:00;4.70;99.90
66728;DHT22;53641;44.274;19.890;2023-02-28T06:38:26;4.70;99.90
66728;DHT22;53641;44.274;19.890;2023-02-28T06:40:55;4.70;99.90
66728;DHT22;53641;44.274;19.890;2023-02-28T06:43:41;4.50;99.90
66728;DHT22;53641;44.274;19.890;2023-02-28T06:46:08;4.50;99.90
66728;DHT22;53641;44.274;19.890;2023-02-28T06:48:34;4.30;99.90
66728;DHT22;53641;44.274;19.890;2023-02-28T06:51:03;4.60;99.90
66728;DHT22;53641;44.274;19.890;2023-02-28T06:53:29;4.60;99.90
66728;DHT22;53641;44.274;19.890;2023-02-28T06:55:55;4.80;99.90
66728;DHT22;53641;44.274;19.890;2023-02-28T06:58:20;4.80;99.90
66728;DHT22;53641;44.274;19.890;2023-02-28T07:00:49;5.00;99.90
66728;DHT22;53641;44.274;19.890;2023-02-28T07:03:18;5.00;99.90
66728;DHT22;53641;44.274;19.890;2023-02-28T07:05:43;5.00;99.90
66728;DHT22;53641;44.274;19.890;2023-02-28T07:08:09;5.10;99.90
66728;DHT22;53641;44.274;19.890;2023-02-28T07:10:37;4.90;99.90
66728;DHT22;53641;44.274;19.890;2023-02-28T07:13:03;5.20;99.90
66728;DHT22;53641;44.274;19.890;2023-02-28T07:15:29;5.30;99.90
66728;DHT22;53641;44.274;19.890;2023-02-28T07:17:55;5.40;99.90
66728;DHT22;53641;44.274;19.890;2023-02-28T07:20:22;5.30;99.90
66728;DHT22;53641;44.274;19.890;2023-02-28T07:22:48;5.50;99.90
66728;DHT22;53641;44.274;19.890;2023-02-28T07:25:20;5.60;99.90
66728;DHT22;53641;44.274;19.890;2023-02-28T07:27:46;5.60;99.90
66728;DHT22;53641;44.274;19.890;2023-02-28T07:30:12;5.70;99.90
66728;DHT22;53641;44.274;19.890;2023-02-28T07:32:38;5.40;99.90
66728;DHT22;53641;44.274;19.890;2023-02-28T07:35:03;5.70;99.90
66728;DHT22;53641;44.274;19.890;2023-02-28T07:37:31;5.60;99.90
66728;DHT22;53641;44.274;19.890;2023-02-28T07:40:05;5.80;99.90
66728;DHT22;53641;44.274;19.890;2023-02-28T07:42:34;5.80;99.90
66728;DHT22;53641;44.274;19.890;2023-02-28T07:44:59;5.90;99.90
66728;DHT22;53641;44.274;19.890;2023-02-28T07:47:25;6.00;99.90
66728;DHT22;53641;44.274;19.890;2023-02-28T07:49:51;5.80;99.90
66728;DHT22;53641;44.274;19.890;2023-02-28T07:52:19;5.90;99.90
66728;DHT22;53641;44.274;19.890;2023-02-28T07:54:44;6.00;99.90
66728;DHT22;53641;44.274;19.890;2023-02-28T07:57:10;5.70;99.90
66728;DHT22;53641;44.274;19.890;2023-02-28T07:59:44;6.00;99.90
66728;DHT22;53641;44.274;19.890;2023-02-28T08:02:13;6.20;99.90
66728;DHT22;53641;44.274;19.890;2023-02-28T08:04:39;6.10;99.90
66728;DHT22;53641;44.274;19.890;2023-02-28T08:07:05;5.90;99.90
66728;DHT22;53641;44.274;19.890;2023-02-28T08:09:30;6.10;99.90
66728;DHT22;53641;44.274;19.890;2023-02-28T08:11:56;6.10;99.90
66728;DHT22;53641;44.274;19.890;2023-02-28T08:14:22;6.10;99.90
66728;DHT22;53641;44.274;19.890;2023-02-28T08:16:48;6.20;99.90
66728;DHT22;53641;44.274;19.890;2023-02-28T08:19:13;6.30;99.90
66728;DHT22;53641;44.274;19.890;2023-02-28T08:21:40;6.40;99.90
66728;DHT22;53641;44.274;19.890;2023-02-28T08:24:06;6.80;99.90
66728;DHT22;53641;44.274;19.890;2023-02-28T08:26:31;7.10;99.90
66728;DHT22;53641;44.274;19.890;2023-02-28T08:28:57;7.00;99.90
66728;DHT22;53641;44.274;19.890;2023-02-28T08:31:23;7.30;99.90
66728;DHT22;53641;44.274;19.890;2023-02-28T08:33:48;7.30;99.90
66728;DHT22;53641;44.274;19.890;2023-02-28T08:36:25;7.10;99.90
66728;DHT22;53641;44.274;19.890;2023-02-28T08:38:51;7.40;99.90
66728;DHT22;53641;44.274;19.890;2023-02-28T08:41:17;7.30;99.90
66728;DHT22;53641;44.274;19.890;2023-02-28T08:43:43;7.30;99.90
66728;DHT22;53641;44.274;19.890;2023-02-28T08:46:12;7.40;99.90
66728;DHT22;53641;44.274;19.890;2023-02-28T08:48:39;7.30;99.90
66728;DHT22;53641;44.274;19.890;2023-02-28T08:51:06;7.00;99.90
66728;DHT22;53641;44.274;19.890;2023-02-28T08:53:32;7.20;99.90
66728;DHT22;53641;44.274;19.890;2023-02-28T08:55:58;6.90;99.90
66728;DHT22;53641;44.274;19.890;2023-02-28T08:58:24;6.90;99.90
66728;DHT22;53641;44.274;19.890;2023-02-28T09:00:50;6.80;99.90
66728;DHT22;53641;44.274;19.890;2023-02-28T09:03:16;6.80;99.90
66728;DHT22;53641;44.274;19.890;2023-02-28T09:05:56;6.60;99.90
66728;DHT22;53641;44.274;19.890;2023-02-28T09:08:23;6.60;99.90
66728;DHT22;53641;44.274;19.890;2023-02-28T09:10:49;6.90;99.90
66728;DHT22;53641;44.274;19.890;2023-02-28T09:13:15;7.10;99.90
66728;DHT22;53641;44.274;19.890;2023-02-28T09:15:40;7.10;99.90
66728;DHT22;53641;44.274;19.890;2023-02-28T09:18:06;7.40;99.90
66728;DHT22;53641;44.274;19.890;2023-02-28T09:20:32;7.10;99.90
66728;DHT22;53641;44.274;19.890;2023-02-28T09:22:57;7.20;99.90
66728;DHT22;53641;44.274;19.890;2023-02-28T09:25:23;7.20;99.90
66728;DHT22;53641;44.274;19.890;2023-02-28T09:27:48;7.40;99.90
66728;DHT22;53641;44.274;19.890;2023-02-28T09:30:14;7.30;99.90
66728;DHT22;53641;44.274;19.890;2023-02-28T09:32:40;7.30;99.90
66728;DHT22;53641;44.274;19.890;2023-02-28T09:35:17;7.00;99.90
66728;DHT22;53641;44.274;19.890;2023-02-28T09:37:43;7.00;99.90
66728;DHT22;53641;44.274;19.890;2023-02-28T09:40:09;6.90;99.90
66728;DHT22;53641;44.274;19.890;2023-02-28T09:42:35;6.90;99.90
66728;DHT22;53641;44.274;19.890;2023-02-28T09:45:13;7.10;99.90
66728;DHT22;53641;44.274;19.890;2023-02-28T09:47:44;6.90;99.90
66728;DHT22;53641;44.274;19.890;2023-02-28T09:50:18;6.90;99.90
66728;DHT22;53641;44.274;19.890;2023-02-28T09:52:49;7.00;99.90
66728;DHT22;53641;44.274;19.890;2023-02-28T09:55:20;7.20;99.90
66728;DHT22;53641;44.274;19.890;2023-02-28T09:57:47;6.90;99.90
66728;DHT22;53641;44.274;19.890;2023-02-28T10:00:34;7.10;99.90
66728;DHT22;53641;44.274;19.890;2023-02-28T10:03:20;7.10;99.90
66728;DHT22;53641;44.274;19.890;2023-02-28T10:05:50;7.40;99.90
66728;DHT22;53641;44.274;19.890;2023-02-28T10:08:23;7.20;99.90
66728;DHT22;53641;44.274;19.890;2023-02-28T10:10:51;7.00;99.90
66728;DHT22;53641;44.274;19.890;2023-02-28T10:13:26;7.10;99.90
66728;DHT22;53641;44.274;19.890;2023-02-28T10:15:56;7.00;99.90
66728;DHT22;53641;44.274;19.890;2023-02-28T10:18:24;6.90;99.90
66728;DHT22;53641;44.274;19.890;2023-02-28T10:20:52;6.80;99.90
66728;DHT22;53641;44.274;19.890;2023-02-28T10:23:22;6.80;99.90
66728;DHT22;53641;44.274;19.890;2023-02-28T10:25:59;6.70;99.90
66728;DHT22;53641;44.274;19.890;2023-02-28T10:28:26;6.90;99.90
66728;DHT22;53641;44.274;19.890;2023-02-28T10:30:53;7.10;99.90
66728;DHT22;53641;44.274;19.890;2023-02-28T10:33:21;7.30;99.90
66728;DHT22;53641;44.274;19.890;2023-02-28T10:35:47;7.20;99.90
66728;DHT22;53641;44.274;19.890;2023-02-28T10:38:21;7.40;99.90
66728;DHT22;53641;44.274;19.890;2023-02-28T10:40:48;7.50;99.90
66728;DHT22;53641;44.274;19.890;2023-02-28T10:43:18;7.80;99.90
66728;DHT22;53641;44.274;19.890;2023-02-28T10:45:57;7.90;99.90
66728;DHT22;53641;44.274;19.890;2023-02-28T10:48:30;7.80;99.90
66728;DHT22;53641;44.274;19.890;2023-02-28T10:51:00;8.10;99.90
66728;DHT22;53641;44.274;19.890;2023-02-28T10:53:34;7.70;99.90
66728;DHT22;53641;44.274;19.890;2023-02-28T10:56:29;7.40;99.90
66728;DHT22;53641;44.274;19.890;2023-02-28T10:59:00;7.50;99.90
66728;DHT22;53641;44.274;19.890;2023-02-28T11:01:39;7.50;99.90
66728;DHT22;53641;44.274;19.890;2023-02-28T11:04:18;8.10;99.90
66728;DHT22;53641;44.274;19.890;2023-02-28T11:07:03;7.30;99.90
66728;DHT22;53641;44.274;19.890;2023-02-28T11:09:41;7.70;99.90
66728;DHT22;53641;44.274;19.890;2023-02-28T11:12:25;7.40;99.90
66728;DHT22;53641;44.274;19.890;2023-02-28T11:14:53;7.40;99.90
66728;DHT22;53641;44.274;19.890;2023-02-28T11:17:21;7.60;99.90
66728;DHT22;53641;44.274;19.890;2023-02-28T11:19:56;7.60;99.90
66728;DHT22;53641;44.274;19.890;2023-02-28T11:22:27;7.60;99.90
66728;DHT22;53641;44.274;19.890;2023-02-28T11:25:32;7.60;99.90
66728;DHT22;53641;44.274;19.890;2023-02-28T11:28:26;7.50;99.90
66728;DHT22;53641;44.274;19.890;2023-02-28T11:34:23;7.20;99.90
66728;DHT22;53641;44.274;19.890;2023-02-28T11:36:56;7.00;99.90
66728;DHT22;53641;44.274;19.890;2023-02-28T11:39:22;7.20;99.90
66728;DHT22;53641;44.274;19.890;2023-02-28T11:41:59;7.10;99.90
66728;DHT22;53641;44.274;19.890;2023-02-28T11:45:55;6.70;99.90
66728;DHT22;53641;44.274;19.890;2023-02-28T11:47:33;6.80;99.90
66728;DHT22;53641;44.274;19.890;2023-02-28T11:50:16;7.00;99.90
66728;DHT22;53641;44.274;19.890;2023-02-28T11:52:51;7.30;99.90
66728;DHT22;53641;44.274;19.890;2023-02-28T11:55:35;7.30;99.90
66728;DHT22;53641;44.274;19.890;2023-02-28T11:58:14;7.40;99.90
66728;DHT22;53641;44.274;19.890;2023-02-28T12:03:31;7.70;99.90
66728;DHT22;53641;44.274;19.890;2023-02-28T12:06:37;7.50;99.90
66728;DHT22;53641;44.274;19.890;2023-02-28T12:09:00;7.40;99.90
66728;DHT22;53641;44.274;19.890;2023-02-28T12:11:41;7.40;99.90
66728;DHT22;53641;44.274;19.890;2023-02-28T12:14:27;7.40;99.90
66728;DHT22;53641;44.274;19.890;2023-02-28T12:17:02;7.40;99.90
66728;DHT22;53641;44.274;19.890;2023-02-28T12:19:42;7.60;99.90
66728;DHT22;53641;44.274;19.890;2023-02-28T12:22:17;7.40;99.90
66728;DHT22;53641;44.274;19.890;2023-02-28T12:25:16;7.50;99.90
66728;DHT22;53641;44.274;19.890;2023-02-28T12:27:33;7.50;99.90
66728;DHT22;53641;44.274;19.890;2023-02-28T12:30:04;7.10;99.90
66728;DHT22;53641;44.274;19.890;2023-02-28T12:32:37;6.80;99.90
66728;DHT22;53641;44.274;19.890;2023-02-28T12:35:06;6.50;99.90
66728;DHT22;53641;44.274;19.890;2023-02-28T12:37:40;6.80;99.90
66728;DHT22;53641;44.274;19.890;2023-02-28T12:40:14;6.80;99.90
66728;DHT22;53641;44.274;19.890;2023-02-28T12:42:48;6.80;99.90
66728;DHT22;53641;44.274;19.890;2023-02-28T12:45:19;6.60;99.90
66728;DHT22;53641;44.274;19.890;2023-02-28T12:47:46;6.90;99.90
66728;DHT22;53641;44.274;19.890;2023-02-28T12:50:13;6.70;99.90
66728;DHT22;53641;44.274;19.890;2023-02-28T12:53:43;6.70;99.90
66728;DHT22;53641;44.274;19.890;2023-02-28T12:56:45;6.90;99.90
66728;DHT22;53641;44.274;19.890;2023-02-28T12:58:26;6.90;99.90
66728;DHT22;53641;44.274;19.890;2023-02-28T13:01:06;6.40;99.90
66728;DHT22;53641;44.274;19.890;2023-02-28T13:03:49;6.80;99.90
66728;DHT22;53641;44.274;19.890;2023-02-28T13:06:34;6.90;99.90
66728;DHT22;53641;44.274;19.890;2023-02-28T13:09:03;6.70;99.90
66728;DHT22;53641;44.274;19.890;2023-02-28T13:11:32;6.70;99.90
66728;DHT22;53641;44.274;19.890;2023-02-28T13:14:00;6.80;99.90
66728;DHT22;53641;44.274;19.890;2023-02-28T13:16:26;6.60;99.90
66728;DHT22;53641;44.274;19.890;2023-02-28T13:18:51;6.40;99.90
66728;DHT22;53641;44.274;19.890;2023-02-28T13:21:22;6.20;99.90
66728;DHT22;53641;44.274;19.890;2023-02-28T13:24:01;6.60;99.90
66728;DHT22;53641;44.274;19.890;2023-02-28T13:29:21;6.70;99.90
66728;DHT22;53641;44.274;19.890;2023-02-28T13:32:18;6.40;99.90
66728;DHT22;53641;44.274;19.890;2023-02-28T13:34:35;6.40;99.90
66728;DHT22;53641;44.274;19.890;2023-02-28T13:39:48;6.30;99.90
66728;DHT22;53641;44.274;19.890;2023-02-28T13:42:34;6.40;99.90
66728;DHT22;53641;44.274;19.890;2023-02-28T13:45:23;6.40;99.90
66728;DHT22;53641;44.274;19.890;2023-02-28T13:47:55;6.50;99.90
66728;DHT22;53641;44.274;19.890;2023-02-28T13:50:24;6.60;99.90
66728;DHT22;53641;44.274;19.890;2023-02-28T13:53:26;6.50;99.90
66728;DHT22;53641;44.274;19.890;2023-02-28T13:56:07;6.50;99.90
66728;DHT22;53641;44.274;19.890;2023-02-28T13:59:47;6.40;99.90
66728;DHT22;53641;44.274;19.890;2023-02-28T14:01:49;6.50;99.90
66728;DHT22;53641;44.274;19.890;2023-02-28T14:05:16;6.50;99.90
66728;DHT22;53641;44.274;19.890;2023-02-28T14:06:46;6.60;99.90
66728;DHT22;53641;44.274;19.890;2023-02-28T14:09:23;6.50;99.90
66728;DHT22;53641;44.274;19.890;2023-02-28T14:11:52;6.70;99.90
66728;DHT22;53641;44.274;19.890;2023-02-28T14:17:05;6.40;99.90
66728;DHT22;53641;44.274;19.890;2023-02-28T14:19:32;6.40;99.90
66728;DHT22;53641;44.274;19.890;2023-02-28T14:23:16;6.40;99.90
66728;DHT22;53641;44.274;19.890;2023-02-28T14:25:09;6.50;99.90
66728;DHT22;53641;44.274;19.890;2023-02-28T14:27:38;6.70;99.90
66728;DHT22;53641;44.274;19.890;2023-02-28T14:30:15;6.60;99.90
66728;DHT22;53641;44.274;19.890;2023-02-28T14:32:51;6.60;99.90
66728;DHT22;53641;44.274;19.890;2023-02-28T14:35:40;6.30;99.90
66728;DHT22;53641;44.274;19.890;2023-02-28T14:38:07;6.40;99.90
66728;DHT22;53641;44.274;19.890;2023-02-28T14:40:38;6.50;99.90
66728;DHT22;53641;44.274;19.890;2023-02-28T14:43:05;6.30;99.90
66728;DHT22;53641;44.274;19.890;2023-02-28T14:45:32;6.40;99.90
66728;DHT22;53641;44.274;19.890;2023-02-28T14:47:58;6.30;99.90
66728;DHT22;53641;44.274;19.890;2023-02-28T14:50:31;6.30;99.90
66728;DHT22;53641;44.274;19.890;2023-02-28T14:52:58;6.10;99.90
66728;DHT22;53641;44.274;19.890;2023-02-28T14:55:26;5.70;99.90
66728;DHT22;53641;44.274;19.890;2023-02-28T14:57:53;5.90;99.90
66728;DHT22;53641;44.274;19.890;2023-02-28T15:00:23;6.00;99.90
66728;DHT22;53641;44.274;19.890;2023-02-28T15:02:50;6.00;99.90
66728;DHT22;53641;44.274;19.890;2023-02-28T15:05:21;6.00;99.90
66728;DHT22;53641;44.274;19.890;2023-02-28T15:07:48;6.10;99.90
66728;DHT22;53641;44.274;19.890;2023-02-28T15:10:18;6.20;99.90
66728;DHT22;53641;44.274;19.890;2023-02-28T15:12:52;6.20;99.90
66728;DHT22;53641;44.274;19.890;2023-02-28T15:15:19;6.40;99.90
66728;DHT22;53641;44.274;19.890;2023-02-28T15:17:46;6.30;99.90
66728;DHT22;53641;44.274;19.890;2023-02-28T15:20:14;6.20;99.90
66728;DHT22;53641;44.274;19.890;2023-02-28T15:22:40;6.30;99.90
66728;DHT22;53641;44.274;19.890;2023-02-28T15:25:06;6.30;99.90
66728;DHT22;53641;44.274;19.890;2023-02-28T15:27:33;6.30;99.90
66728;DHT22;53641;44.274;19.890;2023-02-28T15:30:07;6.30;99.90
66728;DHT22;53641;44.274;19.890;2023-02-28T15:32:34;6.30;99.90
66728;DHT22;53641;44.274;19.890;2023-02-28T15:35:18;6.20;99.90
66728;DHT22;53641;44.274;19.890;2023-02-28T15:37:46;6.30;99.90
66728;DHT22;53641;44.274;19.890;2023-02-28T15:40:17;6.30;99.90
66728;DHT22;53641;44.274;19.890;2023-02-28T15:42:43;6.30;99.90
66728;DHT22;53641;44.274;19.890;2023-02-28T15:45:27;6.10;99.90
66728;DHT22;53641;44.274;19.890;2023-02-28T15:47:52;6.20;99.90
66728;DHT22;53641;44.274;19.890;2023-02-28T15:50:18;5.80;99.90
66728;DHT22;53641;44.274;19.890;2023-02-28T15:52:44;6.20;99.90
66728;DHT22;53641;44.274;19.890;2023-02-28T15:55:16;6.10;99.90
66728;DHT22;53641;44.274;19.890;2023-02-28T15:57:43;6.00;99.90
66728;DHT22;53641;44.274;19.890;2023-02-28T16:00:14;6.00;99.90
66728;DHT22;53641;44.274;19.890;2023-02-28T16:02:40;6.20;99.90
66728;DHT22;53641;44.274;19.890;2023-02-28T16:05:23;6.20;99.90